Noblesville, Indiana
Current Conditions -  °F | °C
As of 2:15 PM on Sunday 21 Dec 2014 (Local Time) from KTYQ Reporting Station
Clear Clear  
Wind Chill: 31°   Ceiling: Unl
Heat Index: 37°   Visibility: 7mi
Dew Point: 26°   Wind: 7mph
Humidity: 66%   Direction: 150°SSE
Pressure: 30.18"   Gusts: NA
Location:  40.05°N, 86.01°W
Report Text: KTYQ 211915Z AUTO 15006KT 7SM CLR 03/M03 A3018 RMK AO2 T00251032
Loading
Personal Weather Stations






























Interactive Weather Map New forecast layout! Learn more

10-Day Weather Forecast

Advertisements
Track Severe Weather on mobile